Time;durP1;ratioP1;P1;durP2;ratioP2;P2;SDS_P1;SDS_P2;PMS_P1;PMS_P2;Temp;Humidity;BMP_temperature;BMP_pressure;BME280_temperature;BME280_humidity;BME280_pressure;Samples;Min_cycle;Max_cycle;Signal;HPM_P1;HPM_P2
2022/11/21 00:02:24;;;;;;;;;;;;;;;19.41;42.81;94863.88;10443602;28;3021;-54
2022/11/21 00:07:34;;;;;;;;;;;;;;;19.39;42.51;94866.00;10444960;28;2844;-53
2022/11/21 00:12:35;;;;;;;;;;;;;;;19.37;42.27;94865.53;10439356;28;2853;-50
2022/11/21 00:17:35;;;;;;;;;;;;;;;19.34;42.43;94874.75;10463776;28;2847;-58
2022/11/21 00:22:36;;;;;;;;;;;;;;;19.32;42.31;94870.81;10435355;28;2982;-52
2022/11/21 00:27:36;;;;;;;;;;;;;;;19.33;42.40;94870.53;10443342;28;2927;-51
2022/11/21 00:32:36;;;;;;;;;;;;;;;19.30;41.99;94863.22;10439860;28;2911;-50
2022/11/21 00:37:36;;;;;;;;;;;;;;;19.30;42.04;94868.47;10436398;28;2816;-51
2022/11/21 00:42:37;;;;;;;;;;;;;;;19.28;42.11;94860.09;10430291;28;2800;-55
2022/11/21 00:47:37;;;;;;;;;;;;;;;19.27;42.03;94863.78;10432157;28;2867;-51
2022/11/21 00:52:37;;;;;;;;;;;;;;;19.26;42.34;94851.72;10439718;28;2895;-51
2022/11/21 00:57:38;;;;;;;;;;;;;;;19.24;41.61;94848.59;10434168;28;3036;-53
2022/11/21 01:02:38;;;;;;;;;;;;;;;19.23;41.80;94851.50;10432693;28;2930;-53
2022/11/21 01:07:38;;;;;;;;;;;;;;;19.22;41.85;94856.00;10447711;28;2879;-52
2022/11/21 01:12:38;;;;;;;;;;;;;;;19.21;41.93;94851.00;10448053;28;2878;-52
2022/11/21 01:17:39;;;;;;;;;;;;;;;19.19;41.81;94858.38;10440673;28;2859;-51
2022/11/21 01:22:39;;;;;;;;;;;;;;;19.17;41.68;94850.00;10450906;28;2874;-51
2022/11/21 01:27:40;;;;;;;;;;;;;;;19.16;41.79;94851.88;10459392;28;2960;-53
2022/11/21 01:32:40;;;;;;;;;;;;;;;19.14;41.79;94838.25;10446621;28;2887;-49
2022/11/21 01:37:40;;;;;;;;;;;;;;;19.12;41.46;94842.22;10433696;28;2906;-53
2022/11/21 01:42:48;;;;;;;;;;;;;;;19.12;41.68;94839.59;10436332;28;2901;-54
2022/11/21 01:47:49;;;;;;;;;;;;;;;19.09;41.43;94830.44;10439846;28;2862;-51
2022/11/21 01:52:49;;;;;;;;;;;;;;;19.08;41.28;94831.47;10446704;28;2993;-53
2022/11/21 01:57:49;;;;;;;;;;;;;;;19.07;41.32;94827.31;10468404;28;2974;-51
2022/11/21 02:02:54;;;;;;;;;;;;;;;19.06;41.63;94804.72;10456649;28;2895;-53
2022/11/21 02:07:54;;;;;;;;;;;;;;;19.02;41.43;94784.59;10440050;28;2876;-53
2022/11/21 02:12:55;;;;;;;;;;;;;;;19.02;41.32;94789.84;10446690;28;2855;-53
2022/11/21 02:17:55;;;;;;;;;;;;;;;19.00;41.25;94789.34;10437860;28;2883;-51
2022/11/21 02:23:01;;;;;;;;;;;;;;;18.99;41.55;94780.69;10437032;28;2967;-55
2022/11/21 02:28:02;;;;;;;;;;;;;;;18.98;41.70;94787.00;10426610;28;2891;-54
2022/11/21 02:33:02;;;;;;;;;;;;;;;18.96;41.36;94777.84;10434599;28;2914;-54
2022/11/21 02:38:04;;;;;;;;;;;;;;;18.93;41.53;94776.59;10439372;28;2927;-55
2022/11/21 02:43:15;;;;;;;;;;;;;;;18.93;41.22;94762.66;10436600;28;2919;-53
2022/11/21 02:48:15;;;;;;;;;;;;;;;18.91;41.30;94764.78;10431763;28;2894;-53
2022/11/21 02:53:16;;;;;;;;;;;;;;;18.89;41.14;94777.44;10445266;28;2994;-51
2022/11/21 02:58:16;;;;;;;;;;;;;;;18.87;41.12;94776.94;10439903;28;2894;-52
2022/11/21 03:03:17;;;;;;;;;;;;;;;18.84;41.45;94770.41;10437951;28;2909;-51
2022/11/21 03:08:17;;;;;;;;;;;;;;;18.84;41.72;94778.28;10441719;28;2923;-54
2022/11/21 03:13:17;;;;;;;;;;;;;;;18.84;41.90;94764.38;10435363;28;2838;-53
2022/11/21 03:18:18;;;;;;;;;;;;;;;18.81;42.00;94760.50;10452107;28;2894;-53
2022/11/21 03:23:18;;;;;;;;;;;;;;;18.81;41.49;94754.44;10434653;28;2910;-51
2022/11/21 03:28:18;;;;;;;;;;;;;;;18.81;41.74;94733.44;10431779;28;2906;-53
2022/11/21 03:33:21;;;;;;;;;;;;;;;18.79;41.73;94730.31;10443661;28;3216;-55
2022/11/21 03:38:21;;;;;;;;;;;;;;;18.78;41.97;94740.03;10442939;28;2883;-54
2022/11/21 03:43:21;;;;;;;;;;;;;;;18.77;41.78;94740.34;10447742;28;2997;-55
2022/11/21 03:48:22;;;;;;;;;;;;;;;18.75;41.83;94730.13;10429198;28;2969;-54
2022/11/21 03:53:22;;;;;;;;;;;;;;;18.73;41.85;94721.75;10435820;28;2920;-53
2022/11/21 03:58:22;;;;;;;;;;;;;;;18.71;41.83;94718.66;10446886;28;2963;-51
2022/11/21 04:03:27;;;;;;;;;;;;;;;18.69;41.80;94716.28;10437364;28;2939;-53
2022/11/21 04:08:27;;;;;;;;;;;;;;;18.69;41.88;94713.66;10428166;28;2872;-51
2022/11/21 04:13:31;;;;;;;;;;;;;;;18.66;41.86;94706.38;10437023;28;3221;-54
2022/11/21 04:18:32;;;;;;;;;;;;;;;18.65;42.02;94702.16;10431391;28;2900;-54
2022/11/21 04:23:33;;;;;;;;;;;;;;;18.64;41.95;94703.25;10440035;28;2934;-52
2022/11/21 04:28:33;;;;;;;;;;;;;;;18.64;41.74;94710.34;10435887;28;2848;-52
2022/11/21 04:33:33;;;;;;;;;;;;;;;18.62;41.74;94704.59;10444201;28;2932;-53
2022/11/21 04:38:33;;;;;;;;;;;;;;;18.61;41.86;94705.66;10437826;28;2951;-51
2022/11/21 04:43:34;;;;;;;;;;;;;;;18.59;41.77;94705.16;10448634;28;2946;-53
2022/11/21 04:48:38;;;;;;;;;;;;;;;18.57;41.51;94700.19;10441605;28;2902;-52
2022/11/21 04:53:38;;;;;;;;;;;;;;;18.58;41.87;94706.22;10424152;28;3201;-55
2022/11/21 04:58:42;;;;;;;;;;;;;;;18.57;42.00;94696.78;10447969;28;2942;-54
2022/11/21 05:03:42;;;;;;;;;;;;;;;18.55;41.61;94688.41;10440590;28;2906;-53
2022/11/21 05:08:42;;;;;;;;;;;;;;;18.53;41.85;94667.72;10437059;28;2847;-55
2022/11/21 05:13:42;;;;;;;;;;;;;;;18.52;42.08;94662.75;10442730;28;2817;-54
2022/11/21 05:18:43;;;;;;;;;;;;;;;18.53;41.97;94669.56;10440548;28;2915;-53
2022/11/21 05:23:43;;;;;;;;;;;;;;;18.51;41.77;94656.72;10439161;28;2831;-55
2022/11/21 05:28:43;;;;;;;;;;;;;;;18.51;41.74;94658.56;10437893;28;2871;-52
2022/11/21 05:33:43;;;;;;;;;;;;;;;18.49;41.94;94658.84;10443559;28;2987;-54
2022/11/21 05:38:44;;;;;;;;;;;;;;;18.48;41.72;94653.91;10448250;28;2915;-55
2022/11/21 05:43:44;;;;;;;;;;;;;;;18.46;41.89;94654.19;10451693;28;2856;-52
2022/11/21 05:48:45;;;;;;;;;;;;;;;18.44;42.00;94651.06;10444622;28;2848;-52
2022/11/21 05:53:45;;;;;;;;;;;;;;;18.44;42.04;94668.66;10451532;28;2978;-54
2022/11/21 05:58:46;;;;;;;;;;;;;;;18.41;42.00;94669.97;10461051;28;2888;-55
2022/11/21 06:03:46;;;;;;;;;;;;;;;18.40;41.94;94671.03;10440530;28;2818;-54
2022/11/21 06:08:47;;;;;;;;;;;;;;;18.38;41.83;94670.53;10448138;28;2860;-54
2022/11/21 06:13:47;;;;;;;;;;;;;;;18.37;41.78;94676.84;10443500;28;2847;-52
2022/11/21 06:18:48;;;;;;;;;;;;;;;18.37;41.87;94687.34;10429904;28;2831;-55
2022/11/21 06:23:52;;;;;;;;;;;;;;;18.36;41.90;94687.66;10445987;28;2924;-51
2022/11/21 06:28:52;;;;;;;;;;;;;;;18.36;41.75;94679.78;10450868;28;2905;-54
2022/11/21 06:33:54;;;;;;;;;;;;;;;18.35;41.66;94692.09;10454354;28;2835;-51
2022/11/21 06:38:54;;;;;;;;;;;;;;;18.33;41.63;94686.38;10461629;28;2896;-48
2022/11/21 06:43:54;;;;;;;;;;;;;;;18.33;41.59;94686.38;10445225;28;2891;-51
2022/11/21 06:48:55;;;;;;;;;;;;;;;18.32;41.64;94689.28;10440063;28;3066;-54
2022/11/21 06:53:56;;;;;;;;;;;;;;;18.31;41.66;94708.69;10443399;28;2868;-52
2022/11/21 06:58:57;;;;;;;;;;;;;;;18.31;41.86;94708.69;10427594;28;2918;-51
2022/11/21 07:03:57;;;;;;;;;;;;;;;18.31;41.75;94708.69;10434388;28;2851;-53
2022/11/21 07:08:57;;;;;;;;;;;;;;;18.29;41.61;94705.56;10446800;28;2902;-53
2022/11/21 07:13:58;;;;;;;;;;;;;;;18.27;41.50;94712.94;10444475;28;2848;-53
2022/11/21 07:18:59;;;;;;;;;;;;;;;18.26;41.62;94727.13;10439071;28;2834;-52
2022/11/21 07:23:59;;;;;;;;;;;;;;;18.25;41.55;94736.84;10448095;28;2835;-52
2022/11/21 07:28:59;;;;;;;;;;;;;;;18.24;41.71;94740.50;10438037;28;3274;-52
2022/11/21 07:34:00;;;;;;;;;;;;;;;18.22;41.87;94744.47;10443291;28;3348;-53
2022/11/21 07:39:00;;;;;;;;;;;;;;;18.20;41.58;94744.78;10440361;28;3152;-54
2022/11/21 07:44:00;;;;;;;;;;;;;;;18.21;41.60;94750.81;10428404;28;3185;-55
2022/11/21 07:49:01;;;;;;;;;;;;;;;18.18;41.59;94746.91;10432094;28;3366;-54
2022/11/21 07:54:01;;;;;;;;;;;;;;;18.17;41.69;94745.34;10441969;28;3364;-53
2022/11/21 07:59:01;;;;;;;;;;;;;;;18.18;41.74;94752.13;10419626;28;3127;-51
2022/11/21 08:04:01;;;;;;;;;;;;;;;18.15;41.68;94755.34;10439506;28;3190;-55
2022/11/21 08:09:02;;;;;;;;;;;;;;;18.17;41.73;94760.28;10433876;28;3345;-54
2022/11/21 08:14:02;;;;;;;;;;;;;;;18.16;41.65;94762.13;10433480;28;3204;-54
2022/11/21 08:19:03;;;;;;;;;;;;;;;18.15;41.41;94770.28;10451084;28;3221;-53
2022/11/21 08:24:03;;;;;;;;;;;;;;;18.16;41.48;94763.97;10441952;28;3119;-53
2022/11/21 08:29:04;;;;;;;;;;;;;;;18.16;41.62;94758.72;10442130;28;3194;-54
2022/11/21 08:34:04;;;;;;;;;;;;;;;18.19;41.79;94763.41;10449758;28;3155;-52
2022/11/21 08:39:04;;;;;;;;;;;;;;;18.17;41.51;94768.16;10439066;28;3177;-54
2022/11/21 08:44:04;;;;;;;;;;;;;;;18.17;41.68;94773.41;10446094;28;3256;-52
2022/11/21 08:49:05;;;;;;;;;;;;;;;18.15;41.62;94770.28;10428719;28;3186;-52
2022/11/21 08:54:05;;;;;;;;;;;;;;;18.12;41.67;94778.69;10456456;28;3149;-53
2022/11/21 08:59:06;;;;;;;;;;;;;;;18.10;41.83;94773.75;10442113;28;3167;-52
2022/11/21 09:04:06;;;;;;;;;;;;;;;18.12;41.90;94765.59;10439213;28;3157;-54
2022/11/21 09:09:06;;;;;;;;;;;;;;;18.11;42.00;94771.91;10445081;28;3156;-54
2022/11/21 09:19:26;;;;;;;;;;;;;;;18.10;41.96;94770.34;10447073;28;3176;-51
2022/11/21 09:24:26;;;;;;;;;;;;;;;18.09;41.88;94763.53;10447512;28;3186;-51
2022/11/21 09:29:26;;;;;;;;;;;;;;;18.09;41.89;94772.19;10444237;28;3303;-53
2022/11/21 09:34:27;;;;;;;;;;;;;;;18.12;41.88;94765.59;10442088;28;3116;-52
2022/11/21 09:39:27;;;;;;;;;;;;;;;18.15;41.77;94751.94;10437061;28;3159;-53
2022/11/21 09:44:40;;;;;;;;;;;;;;;18.18;42.21;94759.22;10447236;28;3183;-53
2022/11/21 09:49:41;;;;;;;;;;;;;;;18.20;42.39;94751.84;10441686;28;3507;-51
2022/11/21 09:54:52;;;;;;;;;;;;;;;18.19;42.26;94747.69;10468287;28;3114;-56
2022/11/21 09:59:52;;;;;;;;;;;;;;;18.19;42.20;94737.97;10435932;28;3154;-53
2022/11/21 10:04:52;;;;;;;;;;;;;;;18.21;42.15;94735.06;10434324;28;3162;-52
2022/11/21 10:09:52;;;;;;;;;;;;;;;18.19;42.11;94734.56;10428012;28;3183;-51
2022/11/21 10:15:01;;;;;;;;;;;;;;;18.19;42.11;94716.19;10433837;28;3118;-53
2022/11/21 10:20:22;;;;;;;;;;;;;;;18.18;42.14;94717.25;10440124;28;3302;-53
2022/11/21 10:25:23;;;;;;;;;;;;;;;18.16;42.32;94709.69;10433992;28;3255;-51
2022/11/21 10:30:25;;;;;;;;;;;;;;;18.16;41.99;94711.50;10450118;28;3150;-53
2022/11/21 10:35:45;;;;;;;;;;;;;;;18.13;42.14;94696.34;10439270;28;3186;-54
2022/11/21 10:40:53;;;;;;;;;;;;;;;18.16;42.42;94693.16;10433266;28;3197;-52
2022/11/21 10:45:53;;;;;;;;;;;;;;;18.23;42.61;94683.88;10449034;28;3205;-54
2022/11/21 10:51:12;;;;;;;;;;;;;;;18.24;42.77;94688.06;10433661;28;3169;-54
2022/11/21 10:56:18;;;;;;;;;;;;;;;18.25;42.62;94681.75;10436681;28;3115;-48
2022/11/21 11:01:19;;;;;;;;;;;;;;;18.25;42.49;94681.75;10431750;28;3131;-52
2022/11/21 11:06:26;;;;;;;;;;;;;;;18.19;42.50;94669.00;10438787;28;3186;-55
2022/11/21 11:11:26;;;;;;;;;;;;;;;18.18;42.49;94662.19;10427363;28;3301;-53
2022/11/21 11:16:28;;;;;;;;;;;;;;;18.15;42.35;94654.88;10432752;28;3187;-53
2022/11/21 11:21:36;;;;;;;;;;;;;;;18.16;42.28;94641.47;10435826;28;3092;-53
2022/11/21 11:26:48;;;;;;;;;;;;;;;18.13;42.37;94630.78;10447641;28;3275;-54
2022/11/21 11:31:55;;;;;;;;;;;;;;;18.13;42.36;94633.41;10426333;28;3229;-49
2022/11/21 11:37:31;;;;;;;;;;;;;;;18.11;42.59;94625.84;10437481;28;3204;-53
2022/11/21 11:48:07;;;;;;;;;;;;;;;18.10;42.26;94611.16;10434262;28;3198;-52
2022/11/21 11:53:12;;;;;;;;;;;;;;;18.08;42.49;94607.25;10432615;28;3352;-51
2022/11/21 11:58:24;;;;;;;;;;;;;;;18.05;42.29;94602.59;10430187;28;3217;-54
2022/11/21 12:03:37;;;;;;;;;;;;;;;18.03;42.30;94605.50;10424101;28;3142;-53
2022/11/21 12:08:42;;;;;;;;;;;;;;;18.00;42.46;94598.19;10423637;28;3152;-52
2022/11/21 12:13:42;;;;;;;;;;;;;;;18.00;42.47;94592.94;10447186;28;3143;-52
2022/11/21 12:18:57;;;;;;;;;;;;;;;18.02;42.36;94584.78;10425034;28;3252;-53
2022/11/21 12:23:57;;;;;;;;;;;;;;;18.01;42.54;94572.75;10446281;28;3185;-54
2022/11/21 12:29:19;;;;;;;;;;;;;;;18.02;42.52;94548.09;10418836;28;3122;-50
2022/11/21 12:34:38;;;;;;;;;;;;;;;17.99;42.55;94546.03;10429256;28;3162;-51
2022/11/21 12:39:44;;;;;;;;;;;;;;;17.98;42.58;94532.16;10440247;28;3189;-54
2022/11/21 12:44:47;;;;;;;;;;;;;;;17.99;42.62;94532.94;10443434;28;3202;-53
2022/11/21 12:55:15;;;;;;;;;;;;;;;17.96;42.52;94507.28;10421944;28;3209;-53
2022/11/21 13:00:19;;;;;;;;;;;;;;;17.95;42.44;94510.97;10432097;28;3201;-51
2022/11/21 13:05:23;;;;;;;;;;;;;;;18.02;42.65;94496.44;10443574;28;3178;-54
2022/11/21 13:10:23;;;;;;;;;;;;;;;18.29;41.53;94487.84;10440959;28;3209;-54
2022/11/21 13:15:27;;;;;;;;;;;;;;;18.26;41.15;94473.44;10441252;28;3538;-52
2022/11/21 13:20:32;;;;;;;;;;;;;;;18.29;41.46;94470.28;10427061;28;3292;-52
2022/11/21 13:25:40;;;;;;;;;;;;;;;18.31;41.51;94462.09;10436866;28;3249;-52
2022/11/21 13:30:47;;;;;;;;;;;;;;;18.31;41.27;94457.63;10433767;28;3186;-54
2022/11/21 13:35:50;;;;;;;;;;;;;;;18.33;41.64;94455.50;10457705;28;3201;-52
2022/11/21 13:46:09;;;;;;;;;;;;;;;18.23;41.66;94447.03;10442880;28;3174;-54
2022/11/21 13:51:12;;;;;;;;;;;;;;;18.19;41.55;94444.22;10441265;28;3170;-54
2022/11/21 13:56:25;;;;;;;;;;;;;;;18.22;41.33;94425.25;10429042;28;3090;-52
2022/11/21 14:01:44;;;;;;;;;;;;;;;18.23;41.49;94416.34;10426371;28;3237;-52
2022/11/21 14:06:44;;;;;;;;;;;;;;;18.17;41.72;94414.09;10438733;28;3166;-53
2022/11/21 14:11:54;;;;;;;;;;;;;;;18.15;41.76;94406.53;10442243;28;3154;-52
2022/11/21 14:17:15;;;;;;;;;;;;;;;18.14;41.81;94409.41;10427489;28;3182;-51
2022/11/21 14:22:24;;;;;;;;;;;;;;;18.11;42.40;94396.91;10407943;28;3147;-52
2022/11/21 14:27:26;;;;;;;;;;;;;;;18.08;41.97;94398.25;10426835;28;3579;-51
2022/11/21 14:32:26;;;;;;;;;;;;;;;18.06;42.36;94384.66;10434383;28;3315;-53
2022/11/21 14:37:27;;;;;;;;;;;;;;;18.05;42.23;94382.31;10436174;28;3102;-53
2022/11/21 14:42:34;;;;;;;;;;;;;;;18.02;42.18;94375.81;10432714;28;3226;-54
2022/11/21 14:47:35;;;;;;;;;;;;;;;18.02;42.28;94369.78;10416862;28;3235;-56
2022/11/21 14:52:35;;;;;;;;;;;;;;;18.00;42.16;94364.06;10432794;28;3166;-52
2022/11/21 14:57:36;;;;;;;;;;;;;;;17.99;42.11;94346.78;10436827;28;3237;-56
2022/11/21 15:02:37;;;;;;;;;;;;;;;17.97;42.03;94336.56;10425605;28;3301;-52
2022/11/21 15:07:41;;;;;;;;;;;;;;;17.97;42.25;94328.69;10456918;28;3158;-51
2022/11/21 15:12:47;;;;;;;;;;;;;;;17.94;42.25;94315.41;10426839;28;3103;-50
2022/11/21 15:17:48;;;;;;;;;;;;;;;17.92;42.06;94315.69;10436855;28;3177;-53
2022/11/21 15:22:49;;;;;;;;;;;;;;;17.92;42.19;94312.28;10431041;28;3186;-51
2022/11/21 15:27:49;;;;;;;;;;;;;;;17.88;42.10;94302.41;10451364;28;3131;-52
2022/11/21 15:33:00;;;;;;;;;;;;;;;17.88;42.24;94296.38;10427915;28;3110;-53
2022/11/21 15:38:00;;;;;;;;;;;;;;;17.85;42.24;94275.97;10424587;28;3134;-50
2022/11/21 15:43:02;;;;;;;;;;;;;;;17.83;41.92;94278.13;10435990;28;3151;-52
2022/11/21 15:48:05;;;;;;;;;;;;;;;17.83;42.33;94265.00;10428791;28;3175;-54
2022/11/21 15:53:15;;;;;;;;;;;;;;;17.81;42.20;94259.28;10431552;28;3830;-53
2022/11/21 15:58:16;;;;;;;;;;;;;;;17.80;42.18;94255.88;10424694;28;3349;-52
2022/11/21 16:03:16;;;;;;;;;;;;;;;17.78;42.34;94246.78;10435575;28;3139;-50
2022/11/21 16:08:16;;;;;;;;;;;;;;;17.76;42.30;94247.03;10411933;28;3157;-52
2022/11/21 16:13:16;;;;;;;;;;;;;;;17.74;42.24;94236.06;10427570;28;3150;-55
2022/11/21 16:18:17;;;;;;;;;;;;;;;17.74;42.23;94230.84;10441969;28;3107;-52
2022/11/21 16:23:17;;;;;;;;;;;;;;;17.74;42.09;94222.22;10430056;28;3214;-52
2022/11/21 16:28:17;;;;;;;;;;;;;;;17.71;42.17;94218.34;10438418;28;3302;-52
2022/11/21 16:33:18;;;;;;;;;;;;;;;17.71;42.19;94214.94;10428023;28;3203;-52
2022/11/21 16:38:18;;;;;;;;;;;;;;;17.71;42.18;94197.38;10441731;28;3176;-49
2022/11/21 16:43:18;;;;;;;;;;;;;;;17.69;42.25;94190.88;10440659;28;3472;-48
2022/11/21 16:48:19;;;;;;;;;;;;;;;17.68;42.26;94176.22;10434475;28;3296;-54
2022/11/21 16:53:19;;;;;;;;;;;;;;;17.67;41.96;94174.66;10441843;28;3126;-53
2022/11/21 16:58:19;;;;;;;;;;;;;;;17.66;42.19;94168.63;10436651;28;3122;-54
2022/11/21 17:03:19;;;;;;;;;;;;;;;17.64;42.27;94160.28;10441145;28;3476;-53
2022/11/21 17:08:20;;;;;;;;;;;;;;;17.63;42.44;94147.50;10435036;28;3115;-53
2022/11/21 17:13:20;;;;;;;;;;;;;;;17.64;42.25;94152.44;10440527;28;3210;-53
2022/11/21 17:18:24;;;;;;;;;;;;;;;17.63;42.05;94139.63;10441417;28;3201;-53
2022/11/21 17:23:24;;;;;;;;;;;;;;;17.62;42.26;94125.00;10437103;28;3139;-53
2022/11/21 17:28:24;;;;;;;;;;;;;;;17.61;42.13;94120.81;10447871;28;3171;-53
2022/11/21 17:33:25;;;;;;;;;;;;;;;17.60;42.29;94111.38;10444131;28;3231;-51
2022/11/21 17:38:26;;;;;;;;;;;;;;;17.60;42.32;94104.31;10441699;28;3177;-52
2022/11/21 17:43:26;;;;;;;;;;;;;;;17.59;42.20;94100.16;10439388;28;3321;-52
2022/11/21 17:48:26;;;;;;;;;;;;;;;17.59;42.32;94088.88;10445531;28;3201;-51
2022/11/21 17:53:27;;;;;;;;;;;;;;;17.59;42.50;94083.63;10441485;28;3180;-55
2022/11/21 17:58:27;;;;;;;;;;;;;;;17.58;42.55;94075.00;10443748;28;3197;-53
2022/11/21 18:03:27;;;;;;;;;;;;;;;17.59;42.64;94079.19;10442450;28;3194;-53
2022/11/21 18:08:28;;;;;;;;;;;;;;;17.58;42.42;94068.97;10442312;28;3222;-51
2022/11/21 18:13:29;;;;;;;;;;;;;;;17.56;42.53;94058.00;10433103;28;3171;-53
2022/11/21 18:18:29;;;;;;;;;;;;;;;17.57;42.55;94055.13;10434556;28;3166;-53
2022/11/21 18:23:30;;;;;;;;;;;;;;;17.56;42.58;94060.63;10438839;28;3151;-52
2022/11/21 18:28:30;;;;;;;;;;;;;;;17.54;42.51;94036.56;10441529;28;3125;-53
2022/11/21 18:33:30;;;;;;;;;;;;;;;17.52;42.60;94031.66;10432432;28;3100;-52
2022/11/21 18:38:32;;;;;;;;;;;;;;;17.51;42.42;94024.88;10433976;28;3200;-50
2022/11/21 18:43:32;;;;;;;;;;;;;;;17.50;42.39;94007.59;10438084;28;3193;-54
2022/11/21 18:48:32;;;;;;;;;;;;;;;17.49;42.42;94003.44;10435489;28;3162;-52
2022/11/21 18:53:33;;;;;;;;;;;;;;;17.48;42.48;93988.75;10442273;28;3174;-53
2022/11/21 18:58:34;;;;;;;;;;;;;;;17.48;42.42;93978.25;10437577;28;3110;-50
2022/11/21 19:03:34;;;;;;;;;;;;;;;17.47;42.22;93968.09;10435896;28;3167;-52
2022/11/21 19:08:34;;;;;;;;;;;;;;;17.46;42.18;93958.66;10436828;28;3166;-47
2022/11/21 19:13:34;;;;;;;;;;;;;;;17.45;42.26;93957.91;10432719;28;3189;-50
2022/11/21 19:18:35;;;;;;;;;;;;;;;17.44;42.28;93956.34;10441949;28;3290;-52
2022/11/21 19:23:35;;;;;;;;;;;;;;;17.43;42.26;93939.09;10437714;28;3204;-51
2022/11/21 19:28:36;;;;;;;;;;;;;;;17.41;42.20;93936.00;10434806;28;3114;-53
2022/11/21 19:33:36;;;;;;;;;;;;;;;17.39;42.31;93922.44;10424797;28;3158;-53
2022/11/21 19:38:37;;;;;;;;;;;;;;;17.42;42.21;93915.81;10438676;28;3094;-51
2022/11/21 19:43:44;;;;;;;;;;;;;;;17.39;42.14;93904.09;10436447;28;3244;-52
2022/11/21 19:48:47;;;;;;;;;;;;;;;17.41;42.37;93883.63;10417802;28;3115;-48
2022/11/21 19:53:48;;;;;;;;;;;;;;;17.37;42.02;93853.84;10440878;28;3134;-51
2022/11/21 19:58:48;;;;;;;;;;;;;;;17.39;42.67;93838.63;10437653;28;3172;-53
2022/11/21 20:03:49;;;;;;;;;;;;;;;17.42;43.78;93837.22;10435602;28;3283;-49
2022/11/21 20:08:53;;;;;;;;;;;;;;;17.44;44.43;93840.31;10432341;28;3123;-53
2022/11/21 20:13:53;;;;;;;;;;;;;;;17.44;44.70;93851.59;10435290;28;3024;-53
2022/11/21 20:18:56;;;;;;;;;;;;;;;17.46;44.62;93838.97;10429031;28;3162;-53
2022/11/21 20:23:57;;;;;;;;;;;;;;;17.45;44.73;93836.66;10435304;28;3307;-52
2022/11/21 20:28:57;;;;;;;;;;;;;;;17.46;44.66;93838.97;10417286;28;3221;-52
2022/11/21 20:33:59;;;;;;;;;;;;;;;17.45;44.69;93826.94;10438726;28;3163;-52
2022/11/21 20:39:00;;;;;;;;;;;;;;;17.44;44.62;93825.38;10419370;28;3382;-51
2022/11/21 20:44:01;;;;;;;;;;;;;;;17.45;44.42;93844.50;10431295;28;3476;-53
2022/11/21 20:49:01;;;;;;;;;;;;;;;17.43;44.32;93826.47;10437791;28;3170;-52
2022/11/21 20:54:01;;;;;;;;;;;;;;;17.44;44.39;93824.59;10448827;28;3229;-51
2022/11/21 20:59:02;;;;;;;;;;;;;;;17.43;44.30;93821.25;10436190;28;3233;-51
2022/11/21 21:04:03;;;;;;;;;;;;;;;17.42;44.11;93830.16;10436907;28;3147;-52
2022/11/21 21:09:03;;;;;;;;;;;;;;;17.41;44.42;93812.91;10440257;28;3163;-51
2022/11/21 21:14:03;;;;;;;;;;;;;;;17.41;44.37;93799.03;10431543;28;3131;-53
2022/11/21 21:19:04;;;;;;;;;;;;;;;17.41;44.35;93805.06;10439316;28;3140;-51
2022/11/21 21:24:05;;;;;;;;;;;;;;;17.39;44.33;93791.47;10441302;28;3532;-53
2022/11/21 21:29:05;;;;;;;;;;;;;;;17.38;44.18;93800.41;10427998;28;3148;-55
2022/11/21 21:34:05;;;;;;;;;;;;;;;17.36;44.07;93807.78;10436999;28;3216;-52
2022/11/21 21:39:06;;;;;;;;;;;;;;;17.38;44.16;93797.78;10434922;28;3104;-53
2022/11/21 21:44:07;;;;;;;;;;;;;;;17.39;44.14;93795.94;10440405;28;3178;-53
2022/11/21 21:49:07;;;;;;;;;;;;;;;17.35;44.10;93780.03;10431535;28;3184;-52
2022/11/21 21:54:17;;;;;;;;;;;;;;;17.36;44.02;93792.06;10450411;28;3183;-54
2022/11/21 21:59:18;;;;;;;;;;;;;;;17.35;43.83;93787.88;10436606;28;3158;-53
2022/11/21 22:04:18;;;;;;;;;;;;;;;17.34;43.75;93786.34;10437593;28;3134;-51
2022/11/21 22:09:19;;;;;;;;;;;;;;;17.33;43.85;93769.09;10442599;28;3174;-52
2022/11/21 22:14:20;;;;;;;;;;;;;;;17.34;43.71;93772.50;10431029;28;3189;-52
2022/11/21 22:19:20;;;;;;;;;;;;;;;17.33;43.74;93774.31;10437756;28;3266;-54
2022/11/21 22:24:21;;;;;;;;;;;;;;;17.31;43.64;93773.09;10430064;28;3462;-55
2022/11/21 22:29:21;;;;;;;;;;;;;;;17.30;43.49;93774.94;10431389;28;3144;-51
2022/11/21 22:34:21;;;;;;;;;;;;;;;17.28;43.58;93771.84;10439583;28;3318;-52
2022/11/21 22:39:22;;;;;;;;;;;;;;;17.29;43.28;93773.38;10436907;28;3177;-53
2022/11/21 22:44:22;;;;;;;;;;;;;;;17.27;43.34;93767.66;10433782;28;3146;-53
2022/11/21 22:49:23;;;;;;;;;;;;;;;17.27;43.30;93770.28;10434531;28;3253;-54
2022/11/21 22:54:23;;;;;;;;;;;;;;;17.25;43.22;93796.00;10430626;28;3202;-50
2022/11/21 22:59:23;;;;;;;;;;;;;;;17.26;42.94;93818.50;10435851;28;3108;-55
2022/11/21 23:04:24;;;;;;;;;;;;;;;17.25;43.15;93822.19;10439237;28;3115;-53
2022/11/21 23:09:25;;;;;;;;;;;;;;;17.23;43.04;93816.47;10427774;28;3166;-53
2022/11/21 23:14:35;;;;;;;;;;;;;;;17.21;42.92;93800.28;10428206;28;3186;-52
2022/11/21 23:19:35;;;;;;;;;;;;;;;17.19;42.92;93784.09;10431821;28;3239;-53
2022/11/21 23:24:35;;;;;;;;;;;;;;;17.20;42.62;93777.81;10441670;28;3189;-51
2022/11/21 23:29:36;;;;;;;;;;;;;;;17.19;42.68;93786.72;10434837;28;3278;-53
2022/11/21 23:34:36;;;;;;;;;;;;;;;17.17;42.79;93773.16;10437787;28;3197;-54
2022/11/21 23:39:36;;;;;;;;;;;;;;;17.16;42.67;93765.59;10432770;28;3110;-52
2022/11/21 23:44:37;;;;;;;;;;;;;;;17.17;42.62;93775.78;10429684;28;3239;-52
2022/11/21 23:49:37;;;;;;;;;;;;;;;17.16;42.68;93770.84;10426852;28;3275;-54
2022/11/21 23:54:37;;;;;;;;;;;;;;;17.15;42.61;93775.31;10444073;28;3162;-51
2022/11/21 23:59:37;;;;;;;;;;;;;;;17.15;42.43;93779.75;10441985;28;3170;-53
